<?xml version="1.0" encoding="UTF-8" standalone="no" ?>
<gpx xmlns="http://www.topografix.com/GPX/1/1" xmlns:xsi="http://www.w3.org/2001/XMLSchema-instance" xsi:schemaLocation="http://www.topografix.com/GPX/1/1 http://www.topografix.com/GPX/1/1/gpx.xsd" version="1.1" creator="VisuGPX - https://www.visugpx.com">
  <metadata>
    <name>Ballon d\'Alsace - morteville</name>
    <desc><![CDATA[Ballon d\'Alsace Morteville]]></desc>
  </metadata>
  <trk>
    <name><![CDATA[ACTIVE LOG 001]]></name>
    <trkseg>
      <trkpt lat="47.81215" lon="6.8501">
        <ele>1132.0898438</ele>
        <time>2012-02-01T11:27:53Z</time>
      </trkpt>
      <trkpt lat="47.811" lon="6.8457">
        <ele>1132.0898438</ele>
        <time>2012-02-01T11:28:25Z</time>
      </trkpt>
      <trkpt lat="47.81135" lon="6.84772">
        <ele>1130.1669922</ele>
        <time>2012-02-01T11:29:14Z</time>
      </trkpt>
      <trkpt lat="47.81141" lon="6.84757">
        <ele>1123.4379883</ele>
        <time>2012-02-01T11:29:27Z</time>
      </trkpt>
      <trkpt lat="47.81153" lon="6.84751">
        <ele>1109.979248</ele>
        <time>2012-02-01T11:29:35Z</time>
      </trkpt>
      <trkpt lat="47.81155" lon="6.84738">
        <ele>1108.0568848</ele>
        <time>2012-02-01T11:29:38Z</time>
      </trkpt>
      <trkpt lat="47.81158" lon="6.84736">
        <ele>1103.2502441</ele>
        <time>2012-02-01T11:29:42Z</time>
      </trkpt>
      <trkpt lat="47.81165" lon="6.84741">
        <ele>1100.8469238</ele>
        <time>2012-02-01T11:29:44Z</time>
      </trkpt>
      <trkpt lat="47.812" lon="6.84743">
        <ele>1076.333252</ele>
        <time>2012-02-01T11:30:07Z</time>
      </trkpt>
      <trkpt lat="47.81218" lon="6.84731">
        <ele>1064.7973633</ele>
        <time>2012-02-01T11:30:20Z</time>
      </trkpt>
      <trkpt lat="47.81218" lon="6.84739">
        <ele>1059.9907227</ele>
        <time>2012-02-01T11:30:24Z</time>
      </trkpt>
      <trkpt lat="47.81246" lon="6.84716">
        <ele>1056.6262207</ele>
        <time>2012-02-01T11:30:30Z</time>
      </trkpt>
      <trkpt lat="47.81246" lon="6.84716">
        <ele>1053.7424316</ele>
        <time>2012-02-01T11:30:33Z</time>
      </trkpt>
      <trkpt lat="47.81259" lon="6.847">
        <ele>1051.8195801</ele>
        <time>2012-02-01T11:30:36Z</time>
      </trkpt>
      <trkpt lat="47.81266" lon="6.84721">
        <ele>1049.8969727</ele>
        <time>2012-02-01T11:30:53Z</time>
      </trkpt>
      <trkpt lat="47.81228" lon="6.84726">
        <ele>1038.842041</ele>
        <time>2012-02-01T11:32:03Z</time>
      </trkpt>
      <trkpt lat="47.81245" lon="6.84742">
        <ele>1026.8254395</ele>
        <time>2012-02-01T11:32:35Z</time>
      </trkpt>
      <trkpt lat="47.81246" lon="6.84765">
        <ele>1023.9414063</ele>
        <time>2012-02-01T11:32:59Z</time>
      </trkpt>
      <trkpt lat="47.81246" lon="6.84766">
        <ele>1007.5991211</ele>
        <time>2012-02-01T11:33:03Z</time>
      </trkpt>
      <trkpt lat="47.81246" lon="6.84766">
        <ele>993.6599121</ele>
        <time>2012-02-01T11:33:08Z</time>
      </trkpt>
      <trkpt lat="47.81223" lon="6.84718">
        <ele>934.5388184</ele>
        <time>2012-02-01T11:33:53Z</time>
      </trkpt>
      <trkpt lat="47.81238" lon="6.84722">
        <ele>916.7543945</ele>
        <time>2012-02-01T11:34:12Z</time>
      </trkpt>
      <trkpt lat="47.8128" lon="6.84799">
        <ele>898.0087891</ele>
        <time>2012-02-01T11:35:07Z</time>
      </trkpt>
      <trkpt lat="47.81291" lon="6.84807">
        <ele>898.4892578</ele>
        <time>2012-02-01T11:35:22Z</time>
      </trkpt>
      <trkpt lat="47.81307" lon="6.84827">
        <ele>891.7600098</ele>
        <time>2012-02-01T11:35:32Z</time>
      </trkpt>
      <trkpt lat="47.81368" lon="6.84865">
        <ele>881.185791</ele>
        <time>2012-02-01T11:35:53Z</time>
      </trkpt>
      <trkpt lat="47.81404" lon="6.84889">
        <ele>863.4013672</ele>
        <time>2012-02-01T11:36:13Z</time>
      </trkpt>
      <trkpt lat="47.81408" lon="6.84904">
        <ele>857.6333008</ele>
        <time>2012-02-01T11:36:18Z</time>
      </trkpt>
      <trkpt lat="47.81427" lon="6.84875">
        <ele>848.0202637</ele>
        <time>2012-02-01T11:36:41Z</time>
      </trkpt>
      <trkpt lat="47.81454" lon="6.84873">
        <ele>830.7165527</ele>
        <time>2012-02-01T11:36:59Z</time>
      </trkpt>
      <trkpt lat="47.81455" lon="6.84896">
        <ele>825.909668</ele>
        <time>2012-02-01T11:37:05Z</time>
      </trkpt>
      <trkpt lat="47.81455" lon="6.84895">
        <ele>823.0258789</ele>
        <time>2012-02-01T11:37:22Z</time>
      </trkpt>
      <trkpt lat="47.81459" lon="6.84907">
        <ele>818.2192383</ele>
        <time>2012-02-01T11:37:29Z</time>
      </trkpt>
      <trkpt lat="47.81454" lon="6.84922">
        <ele>815.3354492</ele>
        <time>2012-02-01T11:37:34Z</time>
      </trkpt>
      <trkpt lat="47.81455" lon="6.84932">
        <ele>809.5673828</ele>
        <time>2012-02-01T11:37:40Z</time>
      </trkpt>
      <trkpt lat="47.81489" lon="6.84931">
        <ele>804.2802734</ele>
        <time>2012-02-01T11:38:14Z</time>
      </trkpt>
      <trkpt lat="47.81488" lon="6.84956">
        <ele>797.0703125</ele>
        <time>2012-02-01T11:38:37Z</time>
      </trkpt>
      <trkpt lat="47.81561" lon="6.84987">
        <ele>785.5344238</ele>
        <time>2012-02-01T11:39:10Z</time>
      </trkpt>
      <trkpt lat="47.8154" lon="6.84962">
        <ele>782.6506348</ele>
        <time>2012-02-01T11:39:14Z</time>
      </trkpt>
      <trkpt lat="47.81571" lon="6.84961">
        <ele>778.8051758</ele>
        <time>2012-02-01T11:39:18Z</time>
      </trkpt>
      <trkpt lat="47.81579" lon="6.84938">
        <ele>787.9377441</ele>
        <time>2012-02-01T11:44:41Z</time>
      </trkpt>
      <trkpt lat="47.81543" lon="6.8496">
        <ele>797.0703125</ele>
        <time>2012-02-01T11:45:59Z</time>
      </trkpt>
      <trkpt lat="47.81489" lon="6.84949">
        <ele>809.5673828</ele>
        <time>2012-02-01T11:47:08Z</time>
      </trkpt>
      <trkpt lat="47.81491" lon="6.84947">
        <ele>812.9321289</ele>
        <time>2012-02-01T11:47:34Z</time>
      </trkpt>
      <trkpt lat="47.81491" lon="6.84935">
        <ele>815.8161621</ele>
        <time>2012-02-01T11:47:47Z</time>
      </trkpt>
      <trkpt lat="47.81473" lon="6.84932">
        <ele>822.0644531</ele>
        <time>2012-02-01T11:48:23Z</time>
      </trkpt>
      <trkpt lat="47.81478" lon="6.84919">
        <ele>825.4289551</ele>
        <time>2012-02-01T11:48:44Z</time>
      </trkpt>
      <trkpt lat="47.81477" lon="6.84887">
        <ele>834.5617676</ele>
        <time>2012-02-01T11:49:37Z</time>
      </trkpt>
      <trkpt lat="47.81454" lon="6.84891">
        <ele>844.1750488</ele>
        <time>2012-02-01T11:50:28Z</time>
      </trkpt>
      <trkpt lat="47.81448" lon="6.84858">
        <ele>850.423584</ele>
        <time>2012-02-01T11:51:09Z</time>
      </trkpt>
      <trkpt lat="47.81409" lon="6.84889">
        <ele>879.2629395</ele>
        <time>2012-02-01T11:54:59Z</time>
      </trkpt>
      <trkpt lat="47.814" lon="6.84869">
        <ele>885.5114746</ele>
        <time>2012-02-01T11:55:34Z</time>
      </trkpt>
      <trkpt lat="47.81377" lon="6.84862">
        <ele>895.1247559</ele>
        <time>2012-02-01T11:56:26Z</time>
      </trkpt>
      <trkpt lat="47.81377" lon="6.84844">
        <ele>898.0087891</ele>
        <time>2012-02-01T11:56:42Z</time>
      </trkpt>
      <trkpt lat="47.81349" lon="6.84837">
        <ele>904.737793</ele>
        <time>2012-02-01T11:57:21Z</time>
      </trkpt>
      <trkpt lat="47.81327" lon="6.84829">
        <ele>906.6604004</ele>
        <time>2012-02-01T11:57:51Z</time>
      </trkpt>
      <trkpt lat="47.81302" lon="6.84812">
        <ele>911.947998</ele>
        <time>2012-02-01T11:58:24Z</time>
      </trkpt>
      <trkpt lat="47.81279" lon="6.84833">
        <ele>924.9257813</ele>
        <time>2012-02-01T11:59:35Z</time>
      </trkpt>
      <trkpt lat="47.81264" lon="6.84839">
        <ele>928.2902832</ele>
        <time>2012-02-01T11:59:54Z</time>
      </trkpt>
      <trkpt lat="47.81246" lon="6.84828">
        <ele>940.7873535</ele>
        <time>2012-02-01T12:01:03Z</time>
      </trkpt>
      <trkpt lat="47.81216" lon="6.8483">
        <ele>947.0358887</ele>
        <time>2012-02-01T12:01:44Z</time>
      </trkpt>
      <trkpt lat="47.81214" lon="6.84748">
        <ele>952.8037109</ele>
        <time>2012-02-01T12:02:54Z</time>
      </trkpt>
      <trkpt lat="47.81198" lon="6.8472">
        <ele>959.0524902</ele>
        <time>2012-02-01T12:03:35Z</time>
      </trkpt>
      <trkpt lat="47.81202" lon="6.84692">
        <ele>964.3395996</ele>
        <time>2012-02-01T12:04:06Z</time>
      </trkpt>
      <trkpt lat="47.8119" lon="6.84709">
        <ele>970.5881348</ele>
        <time>2012-02-01T12:04:42Z</time>
      </trkpt>
      <trkpt lat="47.81203" lon="6.84687">
        <ele>971.5493164</ele>
        <time>2012-02-01T12:05:25Z</time>
      </trkpt>
      <trkpt lat="47.81167" lon="6.84693">
        <ele>987.4111328</ele>
        <time>2012-02-01T12:07:19Z</time>
      </trkpt>
      <trkpt lat="47.81151" lon="6.84659">
        <ele>996.0632324</ele>
        <time>2012-02-01T12:08:21Z</time>
      </trkpt>
      <trkpt lat="47.81145" lon="6.84672">
        <ele>999.4277344</ele>
        <time>2012-02-01T12:08:43Z</time>
      </trkpt>
      <trkpt lat="47.81143" lon="6.84634">
        <ele>1004.7150879</ele>
        <time>2012-02-01T12:09:22Z</time>
      </trkpt>
      <trkpt lat="47.81158" lon="6.84608">
        <ele>1007.5991211</ele>
        <time>2012-02-01T12:09:46Z</time>
      </trkpt>
      <trkpt lat="47.81145" lon="6.84602">
        <ele>1017.2121582</ele>
        <time>2012-02-01T12:10:53Z</time>
      </trkpt>
      <trkpt lat="47.81137" lon="6.84602">
        <ele>1020.0961914</ele>
        <time>2012-02-01T12:11:09Z</time>
      </trkpt>
      <trkpt lat="47.8113" lon="6.8462">
        <ele>1023.4609375</ele>
        <time>2012-02-01T12:11:30Z</time>
      </trkpt>
      <trkpt lat="47.81105" lon="6.84656">
        <ele>1028.7480469</ele>
        <time>2012-02-01T12:12:08Z</time>
      </trkpt>
      <trkpt lat="47.81096" lon="6.84634">
        <ele>1031.6318359</ele>
        <time>2012-02-01T12:12:27Z</time>
      </trkpt>
      <trkpt lat="47.81121" lon="6.84557">
        <ele>1040.7644043</ele>
        <time>2012-02-01T12:13:17Z</time>
      </trkpt>
      <trkpt lat="47.81089" lon="6.84609">
        <ele>1058.0683594</ele>
        <time>2012-02-01T12:15:02Z</time>
      </trkpt>
      <trkpt lat="47.81087" lon="6.84617">
        <ele>1058.0683594</ele>
        <time>2012-02-01T12:15:21Z</time>
      </trkpt>
      <trkpt lat="47.81077" lon="6.84618">
        <ele>1058.5488281</ele>
        <time>2012-02-01T12:16:05Z</time>
      </trkpt>
      <trkpt lat="47.81074" lon="6.8465">
        <ele>1058.0683594</ele>
        <time>2012-02-01T12:18:04Z</time>
      </trkpt>
      <trkpt lat="47.81045" lon="6.84677">
        <ele>1055.6650391</ele>
        <time>2012-02-01T12:18:33Z</time>
      </trkpt>
      <trkpt lat="47.81041" lon="6.84731">
        <ele>1057.5876465</ele>
        <time>2012-02-01T12:18:54Z</time>
      </trkpt>
      <trkpt lat="47.81046" lon="6.84771">
        <ele>1055.6650391</ele>
        <time>2012-02-01T12:19:09Z</time>
      </trkpt>
      <trkpt lat="47.81058" lon="6.84778">
        <ele>1054.2231445</ele>
        <time>2012-02-01T12:19:24Z</time>
      </trkpt>
      <trkpt lat="47.8107" lon="6.84797">
        <ele>1046.5324707</ele>
        <time>2012-02-01T12:19:37Z</time>
      </trkpt>
      <trkpt lat="47.81094" lon="6.84812">
        <ele>1035.9577637</ele>
        <time>2012-02-01T12:19:56Z</time>
      </trkpt>
      <trkpt lat="47.81093" lon="6.84825">
        <ele>1029.7092285</ele>
        <time>2012-02-01T12:20:02Z</time>
      </trkpt>
      <trkpt lat="47.81096" lon="6.8483">
        <ele>1025.8640137</ele>
        <time>2012-02-01T12:20:05Z</time>
      </trkpt>
      <trkpt lat="47.8111" lon="6.84837">
        <ele>1023.4609375</ele>
        <time>2012-02-01T12:20:20Z</time>
      </trkpt>
      <trkpt lat="47.81113" lon="6.84837">
        <ele>1020.5769043</ele>
        <time>2012-02-01T12:20:22Z</time>
      </trkpt>
      <trkpt lat="47.81128" lon="6.84831">
        <ele>1013.8474121</ele>
        <time>2012-02-01T12:20:34Z</time>
      </trkpt>
      <trkpt lat="47.81131" lon="6.84845">
        <ele>1009.0410156</ele>
        <time>2012-02-01T12:20:41Z</time>
      </trkpt>
      <trkpt lat="47.81139" lon="6.84831">
        <ele>1003.2729492</ele>
        <time>2012-02-01T12:20:48Z</time>
      </trkpt>
      <trkpt lat="47.81157" lon="6.84849">
        <ele>989.3339844</ele>
        <time>2012-02-01T12:21:22Z</time>
      </trkpt>
      <trkpt lat="47.81163" lon="6.84846">
        <ele>983.0852051</ele>
        <time>2012-02-01T12:21:27Z</time>
      </trkpt>
      <trkpt lat="47.81171" lon="6.84825">
        <ele>977.317627</ele>
        <time>2012-02-01T12:21:35Z</time>
      </trkpt>
      <trkpt lat="47.81205" lon="6.84857">
        <ele>957.6105957</ele>
        <time>2012-02-01T12:21:54Z</time>
      </trkpt>
      <trkpt lat="47.81212" lon="6.84854">
        <ele>956.6491699</ele>
        <time>2012-02-01T12:22:10Z</time>
      </trkpt>
      <trkpt lat="47.81216" lon="6.84849">
        <ele>953.7651367</ele>
        <time>2012-02-01T12:22:12Z</time>
      </trkpt>
      <trkpt lat="47.81223" lon="6.84851">
        <ele>948.9584961</ele>
        <time>2012-02-01T12:22:15Z</time>
      </trkpt>
      <trkpt lat="47.81235" lon="6.84836">
        <ele>943.1906738</ele>
        <time>2012-02-01T12:22:20Z</time>
      </trkpt>
      <trkpt lat="47.81262" lon="6.84837">
        <ele>937.4226074</ele>
        <time>2012-02-01T12:22:30Z</time>
      </trkpt>
      <trkpt lat="47.81294" lon="6.84846">
        <ele>920.1188965</ele>
        <time>2012-02-01T12:23:07Z</time>
      </trkpt>
      <trkpt lat="47.81345" lon="6.84883">
        <ele>893.6828613</ele>
        <time>2012-02-01T12:23:41Z</time>
      </trkpt>
      <trkpt lat="47.81361" lon="6.84914">
        <ele>873.9755859</ele>
        <time>2012-02-01T12:23:57Z</time>
      </trkpt>
      <trkpt lat="47.81367" lon="6.8491">
        <ele>874.9370117</ele>
        <time>2012-02-01T12:23:58Z</time>
      </trkpt>
      <trkpt lat="47.81377" lon="6.84938">
        <ele>858.1140137</ele>
        <time>2012-02-01T12:24:12Z</time>
      </trkpt>
      <trkpt lat="47.81363" lon="6.84965">
        <ele>854.7492676</ele>
        <time>2012-02-01T12:24:54Z</time>
      </trkpt>
      <trkpt lat="47.81378" lon="6.84957">
        <ele>853.7880859</ele>
        <time>2012-02-01T12:25:54Z</time>
      </trkpt>
      <trkpt lat="47.81363" lon="6.84966">
        <ele>854.2687988</ele>
        <time>2012-02-01T12:28:05Z</time>
      </trkpt>
      <trkpt lat="47.81359" lon="6.84954">
        <ele>857.1525879</ele>
        <time>2012-02-01T12:29:46Z</time>
      </trkpt>
      <trkpt lat="47.81373" lon="6.84954">
        <ele>857.1525879</ele>
        <time>2012-02-01T12:29:58Z</time>
      </trkpt>
      <trkpt lat="47.81357" lon="6.84945">
        <ele>861.4787598</ele>
        <time>2012-02-01T12:30:28Z</time>
      </trkpt>
      <trkpt lat="47.81381" lon="6.84939">
        <ele>873.4951172</ele>
        <time>2012-02-01T12:31:40Z</time>
      </trkpt>
      <trkpt lat="47.81343" lon="6.84897">
        <ele>889.3566895</ele>
        <time>2012-02-01T12:33:04Z</time>
      </trkpt>
      <trkpt lat="47.81344" lon="6.84896">
        <ele>892.7216797</ele>
        <time>2012-02-01T12:33:19Z</time>
      </trkpt>
      <trkpt lat="47.81352" lon="6.84886">
        <ele>895.6054688</ele>
        <time>2012-02-01T12:33:33Z</time>
      </trkpt>
      <trkpt lat="47.81359" lon="6.84867">
        <ele>901.8540039</ele>
        <time>2012-02-01T12:34:02Z</time>
      </trkpt>
      <trkpt lat="47.81344" lon="6.84848">
        <ele>908.1027832</ele>
        <time>2012-02-01T12:34:33Z</time>
      </trkpt>
      <trkpt lat="47.81308" lon="6.8485">
        <ele>914.3510742</ele>
        <time>2012-02-01T12:35:06Z</time>
      </trkpt>
      <trkpt lat="47.8129" lon="6.84818">
        <ele>923.9641113</ele>
        <time>2012-02-01T12:35:52Z</time>
      </trkpt>
      <trkpt lat="47.81225" lon="6.84799">
        <ele>946.074707</ele>
        <time>2012-02-01T12:37:45Z</time>
      </trkpt>
      <trkpt lat="47.81218" lon="6.8478">
        <ele>955.2070313</ele>
        <time>2012-02-01T12:38:34Z</time>
      </trkpt>
      <trkpt lat="47.81208" lon="6.84766">
        <ele>958.5717773</ele>
        <time>2012-02-01T12:38:52Z</time>
      </trkpt>
      <trkpt lat="47.81212" lon="6.84707">
        <ele>972.9916992</ele>
        <time>2012-02-01T12:40:21Z</time>
      </trkpt>
      <trkpt lat="47.81186" lon="6.84723">
        <ele>979.2399902</ele>
        <time>2012-02-01T12:40:52Z</time>
      </trkpt>
      <trkpt lat="47.81177" lon="6.84688">
        <ele>988.8535156</ele>
        <time>2012-02-01T12:41:42Z</time>
      </trkpt>
      <trkpt lat="47.81168" lon="6.84716">
        <ele>994.6210938</ele>
        <time>2012-02-01T12:42:20Z</time>
      </trkpt>
      <trkpt lat="47.81168" lon="6.84689">
        <ele>997.9858398</ele>
        <time>2012-02-01T12:42:44Z</time>
      </trkpt>
      <trkpt lat="47.81161" lon="6.8467">
        <ele>1002.7922363</ele>
        <time>2012-02-01T12:43:18Z</time>
      </trkpt>
      <trkpt lat="47.81162" lon="6.84672">
        <ele>1006.1569824</ele>
        <time>2012-02-01T12:43:36Z</time>
      </trkpt>
      <trkpt lat="47.81157" lon="6.84686">
        <ele>1008.079834</ele>
        <time>2012-02-01T12:43:51Z</time>
      </trkpt>
      <trkpt lat="47.81146" lon="6.84632">
        <ele>1022.0187988</ele>
        <time>2012-02-01T12:45:25Z</time>
      </trkpt>
      <trkpt lat="47.81125" lon="6.84655">
        <ele>1034.0351563</ele>
        <time>2012-02-01T12:46:27Z</time>
      </trkpt>
      <trkpt lat="47.81121" lon="6.84669">
        <ele>1037.3999023</ele>
        <time>2012-02-01T12:46:44Z</time>
      </trkpt>
      <trkpt lat="47.81106" lon="6.84632">
        <ele>1046.5324707</ele>
        <time>2012-02-01T12:47:36Z</time>
      </trkpt>
      <trkpt lat="47.81126" lon="6.84598">
        <ele>1055.6650391</ele>
        <time>2012-02-01T12:48:30Z</time>
      </trkpt>
      <trkpt lat="47.81124" lon="6.84587">
        <ele>1057.5876465</ele>
        <time>2012-02-01T12:48:47Z</time>
      </trkpt>
      <trkpt lat="47.81113" lon="6.84589">
        <ele>1059.029541</ele>
        <time>2012-02-01T12:49:03Z</time>
      </trkpt>
      <trkpt lat="47.8108" lon="6.84646">
        <ele>1072.96875</ele>
        <time>2012-02-01T12:50:23Z</time>
      </trkpt>
      <trkpt lat="47.81042" lon="6.84675">
        <ele>1071.5266113</ele>
        <time>2012-02-01T12:51:25Z</time>
      </trkpt>
      <trkpt lat="47.81008" lon="6.84731">
        <ele>1070.0847168</ele>
        <time>2012-02-01T12:51:57Z</time>
      </trkpt>
      <trkpt lat="47.80967" lon="6.84768">
        <ele>1073.9299316</ele>
        <time>2012-02-01T12:52:35Z</time>
      </trkpt>
      <trkpt lat="47.80947" lon="6.84788">
        <ele>1074.4106445</ele>
        <time>2012-02-01T12:52:56Z</time>
      </trkpt>
      <trkpt lat="47.80865" lon="6.84852">
        <ele>1072.0073242</ele>
        <time>2012-02-01T12:53:58Z</time>
      </trkpt>
      <trkpt lat="47.80773" lon="6.84961">
        <ele>1086.4272461</ele>
        <time>2012-02-01T12:55:42Z</time>
      </trkpt>
      <trkpt lat="47.80752" lon="6.85002">
        <ele>1097.4821777</ele>
        <time>2012-02-01T12:56:28Z</time>
      </trkpt>
      <trkpt lat="47.80754" lon="6.85032">
        <ele>1101.8083496</ele>
        <time>2012-02-01T12:56:51Z</time>
      </trkpt>
      <trkpt lat="47.80736" lon="6.85048">
        <ele>1108.5373535</ele>
        <time>2012-02-01T12:57:21Z</time>
      </trkpt>
      <trkpt lat="47.80696" lon="6.85114">
        <ele>1117.6699219</ele>
        <time>2012-02-01T13:00:22Z</time>
      </trkpt>
      <trkpt lat="47.80713" lon="6.85112">
        <ele>1116.2280273</ele>
        <time>2012-02-01T13:03:55Z</time>
      </trkpt>
      <trkpt lat="47.80722" lon="6.85113">
        <ele>1112.3825684</ele>
        <time>2012-02-01T13:04:02Z</time>
      </trkpt>
      <trkpt lat="47.80729" lon="6.85122">
        <ele>1109.4987793</ele>
        <time>2012-02-01T13:04:08Z</time>
      </trkpt>
      <trkpt lat="47.80732" lon="6.85143">
        <ele>1104.6921387</ele>
        <time>2012-02-01T13:04:16Z</time>
      </trkpt>
      <trkpt lat="47.8074" lon="6.85135">
        <ele>1097.4821777</ele>
        <time>2012-02-01T13:04:27Z</time>
      </trkpt>
      <trkpt lat="47.80741" lon="6.85148">
        <ele>1088.3498535</ele>
        <time>2012-02-01T13:04:40Z</time>
      </trkpt>
      <trkpt lat="47.80766" lon="6.85141">
        <ele>1078.2558594</ele>
        <time>2012-02-01T13:04:51Z</time>
      </trkpt>
      <trkpt lat="47.80783" lon="6.85129">
        <ele>1066.7199707</ele>
        <time>2012-02-01T13:05:01Z</time>
      </trkpt>
      <trkpt lat="47.80792" lon="6.85142">
        <ele>1063.3554688</ele>
        <time>2012-02-01T13:05:18Z</time>
      </trkpt>
      <trkpt lat="47.80784" lon="6.8529">
        <ele>1050.3776855</ele>
        <time>2012-02-01T13:06:19Z</time>
      </trkpt>
      <trkpt lat="47.80778" lon="6.85332">
        <ele>1042.206543</ele>
        <time>2012-02-01T13:06:26Z</time>
      </trkpt>
      <trkpt lat="47.80781" lon="6.8534">
        <ele>1037.3999023</ele>
        <time>2012-02-01T13:06:29Z</time>
      </trkpt>
      <trkpt lat="47.80829" lon="6.85362">
        <ele>1010.963623</ele>
        <time>2012-02-01T13:07:10Z</time>
      </trkpt>
      <trkpt lat="47.8083" lon="6.85396">
        <ele>1004.2346191</ele>
        <time>2012-02-01T13:07:23Z</time>
      </trkpt>
      <trkpt lat="47.80852" lon="6.85424">
        <ele>992.2180176</ele>
        <time>2012-02-01T13:07:34Z</time>
      </trkpt>
      <trkpt lat="47.8085" lon="6.85474">
        <ele>990.7758789</ele>
        <time>2012-02-01T13:08:01Z</time>
      </trkpt>
      <trkpt lat="47.80857" lon="6.85493">
        <ele>985.4885254</ele>
        <time>2012-02-01T13:08:04Z</time>
      </trkpt>
      <trkpt lat="47.80956" lon="6.85568">
        <ele>957.6105957</ele>
        <time>2012-02-01T13:08:14Z</time>
      </trkpt>
      <trkpt lat="47.80937" lon="6.85531">
        <ele>950.4006348</ele>
        <time>2012-02-01T13:08:17Z</time>
      </trkpt>
      <trkpt lat="47.80965" lon="6.85558">
        <ele>944.1520996</ele>
        <time>2012-02-01T13:08:19Z</time>
      </trkpt>
      <trkpt lat="47.81041" lon="6.8558">
        <ele>906.1796875</ele>
        <time>2012-02-01T13:08:35Z</time>
      </trkpt>
      <trkpt lat="47.81045" lon="6.85563">
        <ele>903.7766113</ele>
        <time>2012-02-01T13:08:36Z</time>
      </trkpt>
      <trkpt lat="47.81061" lon="6.85566">
        <ele>898.9699707</ele>
        <time>2012-02-01T13:08:41Z</time>
      </trkpt>
      <trkpt lat="47.81079" lon="6.85577">
        <ele>889.3566895</ele>
        <time>2012-02-01T13:08:51Z</time>
      </trkpt>
      <trkpt lat="47.81131" lon="6.85534">
        <ele>858.1140137</ele>
        <time>2012-02-01T13:09:27Z</time>
      </trkpt>
      <trkpt lat="47.81152" lon="6.85516">
        <ele>840.8100586</ele>
        <time>2012-02-01T13:09:40Z</time>
      </trkpt>
      <trkpt lat="47.81168" lon="6.85396">
        <ele>825.4289551</ele>
        <time>2012-02-01T13:11:14Z</time>
      </trkpt>
      <trkpt lat="47.81197" lon="6.85419">
        <ele>813.4128418</ele>
        <time>2012-02-01T13:11:31Z</time>
      </trkpt>
      <trkpt lat="47.8122" lon="6.85423">
        <ele>798.0317383</ele>
        <time>2012-02-01T13:11:59Z</time>
      </trkpt>
      <trkpt lat="47.81225" lon="6.85402">
        <ele>795.1474609</ele>
        <time>2012-02-01T13:12:09Z</time>
      </trkpt>
      <trkpt lat="47.81271" lon="6.8536">
        <ele>780.7280273</ele>
        <time>2012-02-01T13:12:29Z</time>
      </trkpt>
      <trkpt lat="47.81274" lon="6.85349">
        <ele>787.4570313</ele>
        <time>2012-02-01T13:14:52Z</time>
      </trkpt>
      <trkpt lat="47.81294" lon="6.85307">
        <ele>785.0539551</ele>
        <time>2012-02-01T13:15:24Z</time>
      </trkpt>
      <trkpt lat="47.81294" lon="6.85307">
        <ele>789.8603516</ele>
        <time>2012-02-01T13:16:17Z</time>
      </trkpt>
      <trkpt lat="47.81357" lon="6.85204">
        <ele>791.782959</ele>
        <time>2012-02-01T13:16:38Z</time>
      </trkpt>
      <trkpt lat="47.81357" lon="6.85204">
        <ele>798.512207</ele>
        <time>2012-02-01T13:17:26Z</time>
      </trkpt>
      <trkpt lat="47.81432" lon="6.85142">
        <ele>798.0317383</ele>
        <time>2012-02-01T13:17:53Z</time>
      </trkpt>
      <trkpt lat="47.81432" lon="6.85142">
        <ele>806.6833496</ele>
        <time>2012-02-01T13:18:56Z</time>
      </trkpt>
      <trkpt lat="47.81502" lon="6.85056">
        <ele>818.2192383</ele>
        <time>2012-02-01T13:20:15Z</time>
      </trkpt>
      <trkpt lat="47.81559" lon="6.84992">
        <ele>816.2966309</ele>
        <time>2012-02-01T13:21:00Z</time>
      </trkpt>
      <trkpt lat="47.81573" lon="6.84955">
        <ele>815.3354492</ele>
        <time>2012-02-01T13:21:15Z</time>
      </trkpt>
      <trkpt lat="47.81573" lon="6.84955">
        <ele>817.2580566</ele>
        <time>2012-02-01T13:21:32Z</time>
      </trkpt>
      <trkpt lat="47.81617" lon="6.84974">
        <ele>816.7773438</ele>
        <time>2012-02-01T13:21:52Z</time>
      </trkpt>
      <trkpt lat="47.81623" lon="6.84994">
        <ele>821.1032715</ele>
        <time>2012-02-01T13:22:25Z</time>
      </trkpt>
      <trkpt lat="47.81623" lon="6.85023">
        <ele>821.5837402</ele>
        <time>2012-02-01T13:22:41Z</time>
      </trkpt>
      <trkpt lat="47.81626" lon="6.85053">
        <ele>820.6225586</ele>
        <time>2012-02-01T13:22:47Z</time>
      </trkpt>
      <trkpt lat="47.81655" lon="6.85105">
        <ele>816.7773438</ele>
        <time>2012-02-01T13:23:25Z</time>
      </trkpt>
      <trkpt lat="47.81728" lon="6.85181">
        <ele>815.3354492</ele>
        <time>2012-02-01T13:24:42Z</time>
      </trkpt>
      <trkpt lat="47.81762" lon="6.85183">
        <ele>815.8161621</ele>
        <time>2012-02-01T13:25:37Z</time>
      </trkpt>
      <trkpt lat="47.81811" lon="6.85071">
        <ele>813.8933105</ele>
        <time>2012-02-01T13:27:05Z</time>
      </trkpt>
      <trkpt lat="47.81811" lon="6.85071">
        <ele>819.661377</ele>
        <time>2012-02-01T13:27:56Z</time>
      </trkpt>
      <trkpt lat="47.81908" lon="6.85114">
        <ele>823.0258789</ele>
        <time>2012-02-01T13:28:21Z</time>
      </trkpt>
      <trkpt lat="47.81908" lon="6.85114">
        <ele>825.909668</ele>
        <time>2012-02-01T13:29:14Z</time>
      </trkpt>
      <trkpt lat="47.82" lon="6.85138">
        <ele>828.3132324</ele>
        <time>2012-02-01T13:30:15Z</time>
      </trkpt>
      <trkpt lat="47.82013" lon="6.85137">
        <ele>831.6777344</ele>
        <time>2012-02-01T13:30:35Z</time>
      </trkpt>
      <trkpt lat="47.82017" lon="6.85184">
        <ele>841.7714844</ele>
        <time>2012-02-01T13:31:43Z</time>
      </trkpt>
      <trkpt lat="47.82033" lon="6.85192">
        <ele>844.6555176</ele>
        <time>2012-02-01T13:32:05Z</time>
      </trkpt>
      <trkpt lat="47.82024" lon="6.85245">
        <ele>848.0202637</ele>
        <time>2012-02-01T13:32:33Z</time>
      </trkpt>
      <trkpt lat="47.82012" lon="6.85277">
        <ele>851.3847656</ele>
        <time>2012-02-01T13:32:59Z</time>
      </trkpt>
      <trkpt lat="47.81978" lon="6.85303">
        <ele>857.6333008</ele>
        <time>2012-02-01T13:33:46Z</time>
      </trkpt>
      <trkpt lat="47.82009" lon="6.85268">
        <ele>867.7270508</ele>
        <time>2012-02-01T13:34:46Z</time>
      </trkpt>
      <trkpt lat="47.82009" lon="6.85238">
        <ele>869.6499023</ele>
        <time>2012-02-01T13:35:08Z</time>
      </trkpt>
      <trkpt lat="47.82016" lon="6.85243">
        <ele>871.5722656</ele>
        <time>2012-02-01T13:35:20Z</time>
      </trkpt>
      <trkpt lat="47.82029" lon="6.8521">
        <ele>878.3017578</ele>
        <time>2012-02-01T13:36:00Z</time>
      </trkpt>
      <trkpt lat="47.82058" lon="6.85315">
        <ele>904.737793</ele>
        <time>2012-02-01T13:38:30Z</time>
      </trkpt>
      <trkpt lat="47.8206" lon="6.85314">
        <ele>908.1027832</ele>
        <time>2012-02-01T13:38:45Z</time>
      </trkpt>
      <trkpt lat="47.82066" lon="6.85285">
        <ele>914.3510742</ele>
        <time>2012-02-01T13:39:21Z</time>
      </trkpt>
      <trkpt lat="47.82076" lon="6.85272">
        <ele>920.5996094</ele>
        <time>2012-02-01T13:39:54Z</time>
      </trkpt>
      <trkpt lat="47.82089" lon="6.85281">
        <ele>926.8483887</ele>
        <time>2012-02-01T13:40:30Z</time>
      </trkpt>
      <trkpt lat="47.82089" lon="6.85248">
        <ele>936.4614258</ele>
        <time>2012-02-01T13:41:19Z</time>
      </trkpt>
      <trkpt lat="47.82102" lon="6.85254">
        <ele>940.7873535</ele>
        <time>2012-02-01T13:41:47Z</time>
      </trkpt>
      <trkpt lat="47.82119" lon="6.85279">
        <ele>942.7102051</ele>
        <time>2012-02-01T13:42:03Z</time>
      </trkpt>
      <trkpt lat="47.82126" lon="6.85257">
        <ele>948.9584961</ele>
        <time>2012-02-01T13:42:36Z</time>
      </trkpt>
      <trkpt lat="47.82137" lon="6.85261">
        <ele>954.2458496</ele>
        <time>2012-02-01T13:43:10Z</time>
      </trkpt>
      <trkpt lat="47.82138" lon="6.85261">
        <ele>954.2458496</ele>
        <time>2012-02-01T13:43:11Z</time>
      </trkpt>
      <trkpt lat="47.82142" lon="6.8527">
        <ele>957.6105957</ele>
        <time>2012-02-01T13:43:29Z</time>
      </trkpt>
      <trkpt lat="47.82154" lon="6.85302">
        <ele>960.9750977</ele>
        <time>2012-02-01T13:44:07Z</time>
      </trkpt>
      <trkpt lat="47.82137" lon="6.85302">
        <ele>965.3010254</ele>
        <time>2012-02-01T13:48:59Z</time>
      </trkpt>
      <trkpt lat="47.82132" lon="6.85315">
        <ele>965.3010254</ele>
        <time>2012-02-01T13:49:59Z</time>
      </trkpt>
      <trkpt lat="47.82156" lon="6.85274">
        <ele>974.9143066</ele>
        <time>2012-02-01T13:51:03Z</time>
      </trkpt>
      <trkpt lat="47.82176" lon="6.85274">
        <ele>981.1628418</ele>
        <time>2012-02-01T13:51:33Z</time>
      </trkpt>
      <trkpt lat="47.82184" lon="6.85286">
        <ele>990.7758789</ele>
        <time>2012-02-01T13:52:29Z</time>
      </trkpt>
      <trkpt lat="47.82193" lon="6.85285">
        <ele>994.140625</ele>
        <time>2012-02-01T13:52:52Z</time>
      </trkpt>
      <trkpt lat="47.82187" lon="6.85313">
        <ele>1003.7536621</ele>
        <time>2012-02-01T13:53:46Z</time>
      </trkpt>
      <trkpt lat="47.82225" lon="6.85309">
        <ele>1021.5380859</ele>
        <time>2012-02-01T13:55:38Z</time>
      </trkpt>
      <trkpt lat="47.82266" lon="6.85292">
        <ele>1037.3999023</ele>
        <time>2012-02-01T13:57:09Z</time>
      </trkpt>
      <trkpt lat="47.82271" lon="6.85294">
        <ele>1040.7644043</ele>
        <time>2012-02-01T13:57:26Z</time>
      </trkpt>
      <trkpt lat="47.82289" lon="6.85308">
        <ele>1044.1291504</ele>
        <time>2012-02-01T13:57:43Z</time>
      </trkpt>
      <trkpt lat="47.82288" lon="6.85319">
        <ele>1050.8581543</ele>
        <time>2012-02-01T13:58:17Z</time>
      </trkpt>
      <trkpt lat="47.82328" lon="6.85327">
        <ele>1070.0847168</ele>
        <time>2012-02-01T14:00:03Z</time>
      </trkpt>
      <trkpt lat="47.82338" lon="6.85317">
        <ele>1073.4494629</ele>
        <time>2012-02-01T14:00:23Z</time>
      </trkpt>
      <trkpt lat="47.82366" lon="6.85337">
        <ele>1080.6591797</ele>
        <time>2012-02-01T14:00:59Z</time>
      </trkpt>
      <trkpt lat="47.82352" lon="6.85257">
        <ele>1085.4658203</ele>
        <time>2012-02-01T14:02:06Z</time>
      </trkpt>
      <trkpt lat="47.82367" lon="6.85192">
        <ele>1092.6757813</ele>
        <time>2012-02-01T14:03:16Z</time>
      </trkpt>
      <trkpt lat="47.82371" lon="6.85139">
        <ele>1095.0788574</ele>
        <time>2012-02-01T14:04:11Z</time>
      </trkpt>
      <trkpt lat="47.82399" lon="6.85062">
        <ele>1111.4213867</ele>
        <time>2012-02-01T14:05:50Z</time>
      </trkpt>
      <trkpt lat="47.82402" lon="6.85062">
        <ele>1114.3051758</ele>
        <time>2012-02-01T14:06:04Z</time>
      </trkpt>
      <trkpt lat="47.82422" lon="6.85086">
        <ele>1117.6699219</ele>
        <time>2012-02-01T14:06:23Z</time>
      </trkpt>
      <trkpt lat="47.82424" lon="6.8507">
        <ele>1120.5539551</ele>
        <time>2012-02-01T14:06:39Z</time>
      </trkpt>
      <trkpt lat="47.82437" lon="6.85034">
        <ele>1126.8024902</ele>
        <time>2012-02-01T14:07:20Z</time>
      </trkpt>
      <trkpt lat="47.82435" lon="6.85031">
        <ele>1130.6477051</ele>
        <time>2012-02-01T14:07:42Z</time>
      </trkpt>
      <trkpt lat="47.82428" lon="6.84998">
        <ele>1136.8962402</ele>
        <time>2012-02-01T14:08:27Z</time>
      </trkpt>
      <trkpt lat="47.82416" lon="6.84977">
        <ele>1140.2609863</ele>
        <time>2012-02-01T14:08:49Z</time>
      </trkpt>
      <trkpt lat="47.82369" lon="6.84928">
        <ele>1149.8742676</ele>
        <time>2012-02-01T14:10:09Z</time>
      </trkpt>
      <trkpt lat="47.82355" lon="6.84871">
        <ele>1156.6032715</ele>
        <time>2012-02-01T14:11:23Z</time>
      </trkpt>
      <trkpt lat="47.82373" lon="6.84836">
        <ele>1165.2553711</ele>
        <time>2012-02-01T14:12:17Z</time>
      </trkpt>
      <trkpt lat="47.82364" lon="6.84823">
        <ele>1170.5424805</ele>
        <time>2012-02-01T14:12:47Z</time>
      </trkpt>
      <trkpt lat="47.82354" lon="6.84808">
        <ele>1173.4265137</ele>
        <time>2012-02-01T14:13:08Z</time>
      </trkpt>
      <trkpt lat="47.82348" lon="6.84788">
        <ele>1176.3103027</ele>
        <time>2012-02-01T14:13:27Z</time>
      </trkpt>
      <trkpt lat="47.82335" lon="6.8479">
        <ele>1185.923584</ele>
        <time>2012-02-01T14:14:20Z</time>
      </trkpt>
      <trkpt lat="47.82326" lon="6.8478">
        <ele>1189.2880859</ele>
        <time>2012-02-01T14:14:39Z</time>
      </trkpt>
      <trkpt lat="47.82334" lon="6.84736">
        <ele>1201.7854004</ele>
        <time>2012-02-01T14:16:05Z</time>
      </trkpt>
      <trkpt lat="47.82309" lon="6.84729">
        <ele>1210.9177246</ele>
        <time>2012-02-01T14:17:04Z</time>
      </trkpt>
      <trkpt lat="47.82319" lon="6.84706">
        <ele>1217.1665039</ele>
        <time>2012-02-01T14:17:38Z</time>
      </trkpt>
      <trkpt lat="47.82296" lon="6.84707">
        <ele>1233.5087891</ele>
        <time>2012-02-01T14:20:44Z</time>
      </trkpt>
      <trkpt lat="47.82271" lon="6.84683">
        <ele>1247.447998</ele>
        <time>2012-02-01T14:22:29Z</time>
      </trkpt>
      <trkpt lat="47.82284" lon="6.84666">
        <ele>1249.8513184</ele>
        <time>2012-02-01T14:24:49Z</time>
      </trkpt>
      <trkpt lat="47.82338" lon="6.8462">
        <ele>1254.1772461</ele>
        <time>2012-02-01T14:25:59Z</time>
      </trkpt>
      <trkpt lat="47.82426" lon="6.84624">
        <ele>1238.3154297</ele>
        <time>2012-02-01T14:30:46Z</time>
      </trkpt>
      <trkpt lat="47.82404" lon="6.8469">
        <ele>1192.652832</ele>
        <time>2012-02-01T14:33:15Z</time>
      </trkpt>
      <trkpt lat="47.82418" lon="6.84709">
        <ele>1183.0395508</ele>
        <time>2012-02-01T14:33:46Z</time>
      </trkpt>
      <trkpt lat="47.82419" lon="6.84715">
        <ele>1178.2329102</ele>
        <time>2012-02-01T14:33:51Z</time>
      </trkpt>
      <trkpt lat="47.82406" lon="6.84785">
        <ele>1150.8354492</ele>
        <time>2012-02-01T14:35:16Z</time>
      </trkpt>
      <trkpt lat="47.82415" lon="6.84807">
        <ele>1141.222168</ele>
        <time>2012-02-01T14:35:26Z</time>
      </trkpt>
      <trkpt lat="47.82458" lon="6.84831">
        <ele>1125.3603516</ele>
        <time>2012-02-01T14:35:55Z</time>
      </trkpt>
      <trkpt lat="47.82464" lon="6.84834">
        <ele>1118.6313477</ele>
        <time>2012-02-01T14:36:08Z</time>
      </trkpt>
      <trkpt lat="47.82501" lon="6.84868">
        <ele>1103.2502441</ele>
        <time>2012-02-01T14:36:35Z</time>
      </trkpt>
      <trkpt lat="47.82507" lon="6.84878">
        <ele>1097.4821777</ele>
        <time>2012-02-01T14:36:41Z</time>
      </trkpt>
      <trkpt lat="47.82545" lon="6.8489">
        <ele>1074.4106445</ele>
        <time>2012-02-01T14:37:20Z</time>
      </trkpt>
      <trkpt lat="47.82564" lon="6.84908">
        <ele>1064.3166504</ele>
        <time>2012-02-01T14:37:38Z</time>
      </trkpt>
      <trkpt lat="47.82568" lon="6.84912">
        <ele>1059.029541</ele>
        <time>2012-02-01T14:37:42Z</time>
      </trkpt>
      <trkpt lat="47.82569" lon="6.84917">
        <ele>1055.1843262</ele>
        <time>2012-02-01T14:37:44Z</time>
      </trkpt>
      <trkpt lat="47.82597" lon="6.84919">
        <ele>1045.5710449</ele>
        <time>2012-02-01T14:38:08Z</time>
      </trkpt>
      <trkpt lat="47.82596" lon="6.84919">
        <ele>1048.9355469</ele>
        <time>2012-02-01T14:39:52Z</time>
      </trkpt>
      <trkpt lat="47.82593" lon="6.84932">
        <ele>1044.6096191</ele>
        <time>2012-02-01T14:41:44Z</time>
      </trkpt>
      <trkpt lat="47.826" lon="6.84942">
        <ele>1044.1291504</ele>
        <time>2012-02-01T14:42:43Z</time>
      </trkpt>
      <trkpt lat="47.82623" lon="6.84936">
        <ele>1032.1125488</ele>
        <time>2012-02-01T14:43:03Z</time>
      </trkpt>
      <trkpt lat="47.82665" lon="6.84946">
        <ele>1007.1184082</ele>
        <time>2012-02-01T14:43:32Z</time>
      </trkpt>
      <trkpt lat="47.82725" lon="6.84997">
        <ele>984.5273438</ele>
        <time>2012-02-01T14:44:14Z</time>
      </trkpt>
      <trkpt lat="47.82729" lon="6.85002">
        <ele>982.1240234</ele>
        <time>2012-02-01T14:44:18Z</time>
      </trkpt>
      <trkpt lat="47.82723" lon="6.85064">
        <ele>976.3562012</ele>
        <time>2012-02-01T14:45:59Z</time>
      </trkpt>
      <trkpt lat="47.82751" lon="6.85079">
        <ele>976.3562012</ele>
        <time>2012-02-01T14:47:28Z</time>
      </trkpt>
      <trkpt lat="47.82742" lon="6.85082">
        <ele>977.317627</ele>
        <time>2012-02-01T14:48:18Z</time>
      </trkpt>
      <trkpt lat="47.82746" lon="6.85079">
        <ele>976.8369141</ele>
        <time>2012-02-01T14:49:15Z</time>
      </trkpt>
      <trkpt lat="47.82747" lon="6.85075">
        <ele>962.8977051</ele>
        <time>2012-02-01T14:49:54Z</time>
      </trkpt>
      <trkpt lat="47.82747" lon="6.85078">
        <ele>974.4335938</ele>
        <time>2012-02-01T14:49:55Z</time>
      </trkpt>
      <trkpt lat="47.82748" lon="6.85088">
        <ele>963.8588867</ele>
        <time>2012-02-01T14:54:22Z</time>
      </trkpt>
      <trkpt lat="47.8274" lon="6.85077">
        <ele>964.3395996</ele>
        <time>2012-02-01T14:56:01Z</time>
      </trkpt>
      <trkpt lat="47.82725" lon="6.85103">
        <ele>972.5109863</ele>
        <time>2012-02-01T14:58:40Z</time>
      </trkpt>
      <trkpt lat="47.8273" lon="6.85125">
        <ele>982.1240234</ele>
        <time>2012-02-01T14:59:40Z</time>
      </trkpt>
      <trkpt lat="47.82721" lon="6.85154">
        <ele>991.2565918</ele>
        <time>2012-02-01T15:00:58Z</time>
      </trkpt>
      <trkpt lat="47.82718" lon="6.85211">
        <ele>1004.2346191</ele>
        <time>2012-02-01T15:02:21Z</time>
      </trkpt>
      <trkpt lat="47.82734" lon="6.85223">
        <ele>1007.1184082</ele>
        <time>2012-02-01T15:02:51Z</time>
      </trkpt>
      <trkpt lat="47.82739" lon="6.85258">
        <ele>1013.3669434</ele>
        <time>2012-02-01T15:03:29Z</time>
      </trkpt>
      <trkpt lat="47.82736" lon="6.85286">
        <ele>1013.8474121</ele>
        <time>2012-02-01T15:04:00Z</time>
      </trkpt>
      <trkpt lat="47.82669" lon="6.8533">
        <ele>1025.8640137</ele>
        <time>2012-02-01T15:05:56Z</time>
      </trkpt>
      <trkpt lat="47.82649" lon="6.8532">
        <ele>1034.5158691</ele>
        <time>2012-02-01T15:06:56Z</time>
      </trkpt>
      <trkpt lat="47.82644" lon="6.85304">
        <ele>1040.7644043</ele>
        <time>2012-02-01T15:07:28Z</time>
      </trkpt>
      <trkpt lat="47.82635" lon="6.8527">
        <ele>1049.8969727</ele>
        <time>2012-02-01T15:08:23Z</time>
      </trkpt>
      <trkpt lat="47.82607" lon="6.85235">
        <ele>1061.9135742</ele>
        <time>2012-02-01T15:09:47Z</time>
      </trkpt>
      <trkpt lat="47.8258" lon="6.85256">
        <ele>1075.3718262</ele>
        <time>2012-02-01T15:11:20Z</time>
      </trkpt>
      <trkpt lat="47.82554" lon="6.8526">
        <ele>1080.6591797</ele>
        <time>2012-02-01T15:12:02Z</time>
      </trkpt>
      <trkpt lat="47.82526" lon="6.85288">
        <ele>1090.2724609</ele>
        <time>2012-02-01T15:13:07Z</time>
      </trkpt>
      <trkpt lat="47.8252" lon="6.85285">
        <ele>1093.6369629</ele>
        <time>2012-02-01T15:13:26Z</time>
      </trkpt>
      <trkpt lat="47.82532" lon="6.85242">
        <ele>1098.9240723</ele>
        <time>2012-02-01T15:14:05Z</time>
      </trkpt>
      <trkpt lat="47.82502" lon="6.85251">
        <ele>1109.4987793</ele>
        <time>2012-02-01T15:15:09Z</time>
      </trkpt>
      <trkpt lat="47.82479" lon="6.85194">
        <ele>1118.1506348</ele>
        <time>2012-02-01T15:16:20Z</time>
      </trkpt>
      <trkpt lat="47.82467" lon="6.85161">
        <ele>1116.2280273</ele>
        <time>2012-02-01T15:16:49Z</time>
      </trkpt>
      <trkpt lat="47.8246" lon="6.85153">
        <ele>1109.0180664</ele>
        <time>2012-02-01T15:17:11Z</time>
      </trkpt>
      <trkpt lat="47.82479" lon="6.85112">
        <ele>1109.979248</ele>
        <time>2012-02-01T15:17:35Z</time>
      </trkpt>
      <trkpt lat="47.82478" lon="6.85054">
        <ele>1122.4765625</ele>
        <time>2012-02-01T15:18:45Z</time>
      </trkpt>
      <trkpt lat="47.82473" lon="6.85008">
        <ele>1128.2443848</ele>
        <time>2012-02-01T15:19:28Z</time>
      </trkpt>
      <trkpt lat="47.82443" lon="6.84973">
        <ele>1139.2995605</ele>
        <time>2012-02-01T15:20:36Z</time>
      </trkpt>
      <trkpt lat="47.82432" lon="6.8496">
        <ele>1139.7802734</ele>
        <time>2012-02-01T15:20:54Z</time>
      </trkpt>
      <trkpt lat="47.82353" lon="6.84789">
        <ele>1166.2165527</ele>
        <time>2012-02-01T15:24:29Z</time>
      </trkpt>
      <trkpt lat="47.82333" lon="6.84783">
        <ele>1175.8295898</ele>
        <time>2012-02-01T15:25:19Z</time>
      </trkpt>
      <trkpt lat="47.82335" lon="6.84733">
        <ele>1188.8076172</ele>
        <time>2012-02-01T15:26:27Z</time>
      </trkpt>
      <trkpt lat="47.82315" lon="6.84733">
        <ele>1198.4206543</ele>
        <time>2012-02-01T15:27:17Z</time>
      </trkpt>
      <trkpt lat="47.82321" lon="6.84702">
        <ele>1206.5917969</ele>
        <time>2012-02-01T15:28:21Z</time>
      </trkpt>
      <trkpt lat="47.82302" lon="6.84717">
        <ele>1211.3984375</ele>
        <time>2012-02-01T15:29:10Z</time>
      </trkpt>
      <trkpt lat="47.82281" lon="6.84695">
        <ele>1235.4313965</ele>
        <time>2012-02-01T15:31:51Z</time>
      </trkpt>
      <trkpt lat="47.82273" lon="6.84685">
        <ele>1237.8347168</ele>
        <time>2012-02-01T15:32:12Z</time>
      </trkpt>
      <trkpt lat="47.82272" lon="6.84685">
        <ele>1228.7023926</ele>
        <time>2012-02-01T15:32:41Z</time>
      </trkpt>
      <trkpt lat="47.82272" lon="6.84685">
        <ele>1240.2380371</ele>
        <time>2012-02-01T15:32:43Z</time>
      </trkpt>
      <trkpt lat="47.82272" lon="6.84685">
        <ele>1238.7961426</ele>
        <time>2012-02-01T15:32:57Z</time>
      </trkpt>
      <trkpt lat="47.82277" lon="6.8468">
        <ele>1241.6799316</ele>
        <time>2012-02-01T15:33:21Z</time>
      </trkpt>
      <trkpt lat="47.82235" lon="6.84505">
        <ele>1252.2543945</ele>
        <time>2012-02-01T15:39:47Z</time>
      </trkpt>
      <trkpt lat="47.82236" lon="6.84472">
        <ele>1245.5253906</ele>
        <time>2012-02-01T15:40:34Z</time>
      </trkpt>
      <trkpt lat="47.82215" lon="6.8447">
        <ele>1242.1606445</ele>
        <time>2012-02-01T15:40:40Z</time>
      </trkpt>
      <trkpt lat="47.82211" lon="6.84466">
        <ele>1236.873291</ele>
        <time>2012-02-01T15:40:46Z</time>
      </trkpt>
      <trkpt lat="47.82235" lon="6.84354">
        <ele>1232.5476074</ele>
        <time>2012-02-01T15:40:51Z</time>
      </trkpt>
      <trkpt lat="47.82235" lon="6.84311">
        <ele>1226.779541</ele>
        <time>2012-02-01T15:40:56Z</time>
      </trkpt>
      <trkpt lat="47.8222" lon="6.84281">
        <ele>1221.9729004</ele>
        <time>2012-02-01T15:41:00Z</time>
      </trkpt>
      <trkpt lat="47.82164" lon="6.84281">
        <ele>1217.1665039</ele>
        <time>2012-02-01T15:41:03Z</time>
      </trkpt>
      <trkpt lat="47.82136" lon="6.84236">
        <ele>1206.111084</ele>
        <time>2012-02-01T15:41:12Z</time>
      </trkpt>
      <trkpt lat="47.82045" lon="6.84277">
        <ele>1184.0009766</ele>
        <time>2012-02-01T15:41:32Z</time>
      </trkpt>
      <trkpt lat="47.81905" lon="6.84238">
        <ele>1161.890625</ele>
        <time>2012-02-01T15:41:48Z</time>
      </trkpt>
      <trkpt lat="47.81843" lon="6.84222">
        <ele>1148.9128418</ele>
        <time>2012-02-01T15:41:55Z</time>
      </trkpt>
      <trkpt lat="47.8144" lon="6.84261">
        <ele>1130.6477051</ele>
        <time>2012-02-01T15:43:17Z</time>
      </trkpt>
      <trkpt lat="47.81374" lon="6.84279">
        <ele>1139.2995605</ele>
        <time>2012-02-01T15:44:59Z</time>
      </trkpt>
      <trkpt lat="47.81337" lon="6.84287">
        <ele>1141.7028809</ele>
        <time>2012-02-01T15:45:20Z</time>
      </trkpt>
      <trkpt lat="47.81337" lon="6.84287">
        <ele>1146.9899902</ele>
        <time>2012-02-01T15:45:57Z</time>
      </trkpt>
      <trkpt lat="47.81271" lon="6.84251">
        <ele>1147.951416</ele>
        <time>2012-02-01T15:46:17Z</time>
      </trkpt>
      <trkpt lat="47.81227" lon="6.84324">
        <ele>1147.951416</ele>
        <time>2012-02-01T15:47:38Z</time>
      </trkpt>
      <trkpt lat="47.81196" lon="6.84388">
        <ele>1144.5866699</ele>
        <time>2012-02-01T15:48:04Z</time>
      </trkpt>
      <trkpt lat="47.81162" lon="6.8446">
        <ele>1129.6862793</ele>
        <time>2012-02-01T15:48:19Z</time>
      </trkpt>
      <trkpt lat="47.81095" lon="6.84552">
        <ele>1097.4821777</ele>
        <time>2012-02-01T15:48:40Z</time>
      </trkpt>
      <trkpt lat="47.81074" lon="6.8461">
        <ele>1087.3884277</ele>
        <time>2012-02-01T15:48:47Z</time>
      </trkpt>
      <trkpt lat="47.81054" lon="6.84614">
        <ele>1082.5817871</ele>
        <time>2012-02-01T15:48:51Z</time>
      </trkpt>
      <trkpt lat="47.81059" lon="6.84541">
        <ele>1083.0622559</ele>
        <time>2012-02-01T15:49:20Z</time>
      </trkpt>
      <trkpt lat="47.81059" lon="6.8451">
        <ele>1079.6977539</ele>
        <time>2012-02-01T15:49:31Z</time>
      </trkpt>
      <trkpt lat="47.8103" lon="6.84522">
        <ele>1077.2946777</ele>
        <time>2012-02-01T15:51:49Z</time>
      </trkpt>
    </trkseg>
  </trk>
</gpx>